Kerr, Ohio
Current Conditions -  °F | °C
As of 1:55 AM on Tuesday 21 Oct 2014 (Local Time) from K3I2 Reporting Station
Drizzle Drizzle  
Wind Chill: 54°   Ceiling: 7000
Heat Index: 54°   Visibility: 10mi
Dew Point: 52°   Wind: 5mph
Humidity: 94%   Direction: 230°SW
Pressure: 29.92"   Gusts: NA
Location:  38.87°N, 82.26°W
Report Text: K3I2 210555Z AUTO 23004KT 10SM -DZ SCT065 BKN070 OVC080 12/11 A2992 RMK AO2
Loading
Personal Weather Stations






























Interactive Weather Map New forecast layout! Learn more

10-Day Weather Forecast

Advertisements
Track Severe Weather on mobile